Time;durP1;ratioP1;P1;durP2;ratioP2;P2;SDS_P1;SDS_P2;PMS_P1;PMS_P2;Temp;Humidity;BMP_temperature;BMP_pressure;BME280_temperature;BME280_humidity;BME280_pressure;Samples;Min_cycle;Max_cycle;Signal;HPM_P1;HPM_P2
2021/07/21 00:01:51;;;;;;;9.82;7.43;;;;;;;;;;5010068;28;20021;-72
2021/07/21 00:04:17;;;;;;;9.80;7.43;;;;;;;;;;5011464;28;20104;-72
2021/07/21 00:06:43;;;;;;;10.80;6.40;;;;;;;;;;5017075;28;20374;-70
2021/07/21 00:09:09;;;;;;;7.85;7.05;;;;;;;;;;5015831;28;20030;-70
2021/07/21 00:14:20;;;;;;;7.35;6.65;;;;;;;;;;5018424;28;20040;-69
2021/07/21 00:16:55;;;;;;;7.95;7.03;;;;;;;;;;5011771;28;20033;-69
2021/07/21 00:22:06;;;;;;;7.22;6.38;;;;;;;;;;5023280;28;20120;-70
2021/07/21 00:24:33;;;;;;;8.68;7.10;;;;;;;;;;5018177;28;20045;-70
2021/07/21 00:26:59;;;;;;;7.80;6.63;;;;;;;;;;5022257;28;20026;-71
2021/07/21 00:29:25;;;;;;;7.88;6.93;;;;;;;;;;5025584;28;20025;-69
2021/07/21 00:31:51;;;;;;;7.50;6.78;;;;;;;;;;5019527;28;20029;-70
2021/07/21 00:34:17;;;;;;;11.45;7.45;;;;;;;;;;5032835;28;20038;-70
2021/07/21 00:36:43;;;;;;;9.15;7.68;;;;;;;;;;5022338;28;20028;-70
2021/07/21 00:39:09;;;;;;;8.85;7.68;;;;;;;;;;5024155;28;20058;-70
2021/07/21 00:41:35;;;;;;;7.43;6.72;;;;;;;;;;5020487;28;20021;-70
2021/07/21 00:44:02;;;;;;;9.77;7.45;;;;;;;;;;5021440;28;20033;-70
2021/07/21 00:46:28;;;;;;;8.18;6.95;;;;;;;;;;5030909;28;20032;-70
2021/07/21 00:48:54;;;;;;;14.45;7.60;;;;;;;;;;5021855;28;20030;-70
2021/07/21 00:51:20;;;;;;;7.90;7.10;;;;;;;;;;5024807;28;20024;-70
2021/07/21 00:53:47;;;;;;;9.10;8.07;;;;;;;;;;5022870;28;20036;-69
2021/07/21 00:56:14;;;;;;;11.15;7.75;;;;;;;;;;5030286;28;20682;-73
2021/07/21 00:58:40;;;;;;;8.73;6.93;;;;;;;;;;5025469;28;20037;-71
2021/07/21 01:01:06;;;;;;;7.95;7.03;;;;;;;;;;5027688;28;20029;-70
2021/07/21 01:03:32;;;;;;;9.55;6.95;;;;;;;;;;5024295;28;20603;-73
2021/07/21 01:05:59;;;;;;;9.23;7.45;;;;;;;;;;5021949;28;20069;-69
2021/07/21 01:08:26;;;;;;;8.35;7.43;;;;;;;;;;5023599;28;20025;-71
2021/07/21 01:11:12;;;;;;;10.20;6.82;;;;;;;;;;5019201;28;20076;-70
2021/07/21 01:13:41;;;;;;;8.88;6.93;;;;;;;;;;5023036;28;20025;-70
2021/07/21 01:16:17;;;;;;;9.35;7.53;;;;;;;;;;5024518;28;20640;-70
2021/07/21 01:18:48;;;;;;;8.07;7.10;;;;;;;;;;5023713;28;20137;-71
2021/07/21 01:21:25;;;;;;;10.90;7.82;;;;;;;;;;5014208;28;20109;-70
2021/07/21 01:24:00;;;;;;;9.63;7.30;;;;;;;;;;5026300;28;20043;-70
2021/07/21 01:26:28;;;;;;;8.73;7.78;;;;;;;;;;5027843;28;20025;-72
2021/07/21 01:28:56;;;;;;;8.07;7.28;;;;;;;;;;5033068;28;20032;-70
2021/07/21 01:31:25;;;;;;;8.10;7.22;;;;;;;;;;5020772;28;20041;-71
2021/07/21 01:33:51;;;;;;;8.98;8.07;;;;;;;;;;5031132;28;20025;-70
2021/07/21 01:36:29;;;;;;;7.53;6.78;;;;;;;;;;5023363;28;20087;-71
2021/07/21 01:38:57;;;;;;;10.10;7.70;;;;;;;;;;5024459;28;20047;-71
2021/07/21 01:41:31;;;;;;;9.52;7.47;;;;;;;;;;5023224;28;20478;-70
2021/07/21 01:43:59;;;;;;;8.18;7.20;;;;;;;;;;5025869;28;20041;-71
2021/07/21 01:46:27;;;;;;;8.57;7.78;;;;;;;;;;5021692;28;20037;-70
2021/07/21 01:48:55;;;;;;;7.72;6.80;;;;;;;;;;5025512;28;20504;-70
2021/07/21 01:51:24;;;;;;;9.52;7.60;;;;;;;;;;5023415;28;20084;-69
2021/07/21 01:53:52;;;;;;;8.07;7.22;;;;;;;;;;5025086;28;20084;-70
2021/07/21 01:56:19;;;;;;;9.15;6.97;;;;;;;;;;5026511;28;20029;-70
2021/07/21 01:58:46;;;;;;;8.38;7.43;;;;;;;;;;5020359;28;20025;-72
2021/07/21 02:01:13;;;;;;;7.97;6.88;;;;;;;;;;5031482;28;20493;-70
2021/07/21 02:03:43;;;;;;;7.63;6.85;;;;;;;;;;5019184;28;20501;-70
2021/07/21 02:06:10;;;;;;;9.25;7.47;;;;;;;;;;5026290;28;20025;-70
2021/07/21 02:08:37;;;;;;;10.50;7.53;;;;;;;;;;5025681;28;20078;-70
2021/07/21 02:11:04;;;;;;;9.57;8.57;;;;;;;;;;5029677;28;20566;-69
2021/07/21 02:13:30;;;;;;;10.20;8.95;;;;;;;;;;5027904;28;20028;-70
2021/07/21 02:15:57;;;;;;;12.35;10.48;;;;;;;;;;5023194;28;20781;-70
2021/07/21 02:18:24;;;;;;;11.77;10.27;;;;;;;;;;5027551;28;20060;-69
2021/07/21 02:20:52;;;;;;;16.13;11.32;;;;;;;;;;5017024;28;20096;-69
2021/07/21 02:23:19;;;;;;;13.80;11.30;;;;;;;;;;5024966;28;20045;-72
2021/07/21 02:25:46;;;;;;;15.48;12.68;;;;;;;;;;5028035;28;20033;-71
2021/07/21 02:28:13;;;;;;;18.30;12.65;;;;;;;;;;5026735;28;20121;-69
2021/07/21 02:30:39;;;;;;;18.38;13.73;;;;;;;;;;5022501;28;20030;-72
2021/07/21 02:33:17;;;;;;;18.17;12.40;;;;;;;;;;5031724;28;20345;-74
2021/07/21 02:35:43;;;;;;;15.13;10.88;;;;;;;;;;5029309;28;20417;-70
2021/07/21 02:38:11;;;;;;;12.77;10.50;;;;;;;;;;5031184;28;20024;-70
2021/07/21 02:40:37;;;;;;;15.20;10.13;;;;;;;;;;5035695;28;20658;-70
2021/07/21 02:43:03;;;;;;;11.50;8.93;;;;;;;;;;5030639;28;20408;-70
2021/07/21 02:45:30;;;;;;;11.45;9.15;;;;;;;;;;5032973;28;20037;-70
2021/07/21 02:47:56;;;;;;;10.13;8.57;;;;;;;;;;5030167;28;20075;-70
2021/07/21 02:50:22;;;;;;;10.15;8.68;;;;;;;;;;5032643;28;20041;-71
2021/07/21 02:52:55;;;;;;;9.75;7.90;;;;;;;;;;5029852;28;20041;-70
2021/07/21 02:55:21;;;;;;;10.57;8.27;;;;;;;;;;5032274;28;20025;-70
2021/07/21 02:57:56;;;;;;;9.15;8.15;;;;;;;;;;5026889;28;20028;-70
2021/07/21 03:00:28;;;;;;;10.35;8.25;;;;;;;;;;5031472;28;20029;-70
2021/07/21 03:02:55;;;;;;;8.65;7.75;;;;;;;;;;5028649;28;20064;-70
2021/07/21 03:05:23;;;;;;;8.57;7.78;;;;;;;;;;5026354;28;20032;-70
2021/07/21 03:07:52;;;;;;;9.15;8.25;;;;;;;;;;5023918;28;20631;-70
2021/07/21 03:10:18;;;;;;;9.38;8.38;;;;;;;;;;5023082;28;20164;-70
2021/07/21 03:13:05;;;;;;;9.40;7.95;;;;;;;;;;5028085;28;20042;-70
2021/07/21 03:15:32;;;;;;;8.73;7.93;;;;;;;;;;5024484;28;20032;-70
2021/07/21 03:17:59;;;;;;;10.02;7.80;;;;;;;;;;5025146;28;20567;-70
2021/07/21 03:20:26;;;;;;;8.38;7.63;;;;;;;;;;5031093;28;20348;-70
2021/07/21 03:22:54;;;;;;;9.35;7.57;;;;;;;;;;5022070;28;20026;-70
2021/07/21 03:25:22;;;;;;;9.63;7.97;;;;;;;;;;5028606;28;20053;-70
2021/07/21 03:27:50;;;;;;;8.80;7.90;;;;;;;;;;5025569;28;20053;-70
2021/07/21 03:30:16;;;;;;;9.25;8.30;;;;;;;;;;5024594;28;20060;-70
2021/07/21 03:32:43;;;;;;;10.23;8.13;;;;;;;;;;5025452;28;20029;-70
2021/07/21 03:35:10;;;;;;;8.45;7.63;;;;;;;;;;5025209;28;20104;-70
2021/07/21 03:37:37;;;;;;;8.75;7.95;;;;;;;;;;5027260;28;20535;-70
2021/07/21 03:40:04;;;;;;;8.70;7.80;;;;;;;;;;5024561;28;20074;-70
2021/07/21 03:42:31;;;;;;;11.68;8.10;;;;;;;;;;5026662;28;20409;-72
2021/07/21 03:45:00;;;;;;;11.57;8.10;;;;;;;;;;5024598;28;20042;-71
2021/07/21 03:47:26;;;;;;;8.88;8.07;;;;;;;;;;5026610;28;20021;-70
2021/07/21 03:49:53;;;;;;;9.48;8.57;;;;;;;;;;5024221;28;20172;-70
2021/07/21 03:52:20;;;;;;;8.57;7.78;;;;;;;;;;5027296;28;20482;-70
2021/07/21 03:54:47;;;;;;;10.82;8.10;;;;;;;;;;5022850;28;20033;-70
2021/07/21 03:57:14;;;;;;;8.65;7.70;;;;;;;;;;5029486;28;20571;-70
2021/07/21 03:59:40;;;;;;;9.32;7.88;;;;;;;;;;5028115;28;20513;-71
2021/07/21 04:02:07;;;;;;;9.50;8.52;;;;;;;;;;5031082;28;20508;-70
2021/07/21 04:04:34;;;;;;;9.40;8.25;;;;;;;;;;5026246;28;20039;-70
2021/07/21 04:07:01;;;;;;;9.85;8.00;;;;;;;;;;5030698;28;20025;-70
2021/07/21 04:09:28;;;;;;;13.18;8.23;;;;;;;;;;5027596;28;20035;-71
2021/07/21 04:11:55;;;;;;;9.52;8.48;;;;;;;;;;5030631;28;20055;-73
2021/07/21 04:14:22;;;;;;;9.90;8.25;;;;;;;;;;5025814;28;20026;-72
2021/07/21 04:16:52;;;;;;;9.65;7.60;;;;;;;;;;5029017;28;20405;-70
2021/07/21 04:19:19;;;;;;;10.07;8.18;;;;;;;;;;5027197;28;20124;-70
2021/07/21 04:21:49;;;;;;;9.15;8.25;;;;;;;;;;5030315;28;20749;-73
2021/07/21 04:24:17;;;;;;;9.88;8.15;;;;;;;;;;5028414;28;20056;-70
2021/07/21 04:26:44;;;;;;;9.30;7.22;;;;;;;;;;5032008;28;20445;-70
2021/07/21 04:29:13;;;;;;;8.75;7.85;;;;;;;;;;5028337;28;20961;-70
2021/07/21 04:31:40;;;;;;;8.00;7.20;;;;;;;;;;5029567;28;20485;-72
2021/07/21 04:34:07;;;;;;;7.95;7.18;;;;;;;;;;5028534;28;20037;-71
2021/07/21 04:36:38;;;;;;;9.40;8.50;;;;;;;;;;5030604;28;20026;-70
2021/07/21 04:39:04;;;;;;;8.77;7.85;;;;;;;;;;5027333;28;20091;-70
2021/07/21 04:41:31;;;;;;;10.55;7.57;;;;;;;;;;5030267;28;20033;-70
2021/07/21 04:43:57;;;;;;;11.93;7.72;;;;;;;;;;5027800;28;20041;-70
2021/07/21 04:46:24;;;;;;;8.43;7.63;;;;;;;;;;5029867;28;20037;-70
2021/07/21 04:48:51;;;;;;;21.77;8.68;;;;;;;;;;5025665;28;20060;-71
2021/07/21 04:51:18;;;;;;;12.20;8.35;;;;;;;;;;5031518;28;20135;-70
2021/07/21 04:53:44;;;;;;;8.25;7.30;;;;;;;;;;5022638;28;20021;-69
2021/07/21 04:56:10;;;;;;;9.70;7.68;;;;;;;;;;5023994;28;20481;-70
2021/07/21 04:58:37;;;;;;;7.57;6.78;;;;;;;;;;5023502;28;20464;-70
2021/07/21 05:01:03;;;;;;;15.55;8.43;;;;;;;;;;5028826;28;20036;-69
2021/07/21 05:03:29;;;;;;;20.25;9.50;;;;;;;;;;5025435;28;20033;-70
2021/07/21 05:05:55;;;;;;;8.80;7.78;;;;;;;;;;5028554;28;20033;-70
2021/07/21 05:08:21;;;;;;;13.27;7.90;;;;;;;;;;5027294;28;20190;-71
2021/07/21 05:10:48;;;;;;;10.93;7.93;;;;;;;;;;5025936;28;20072;-70
2021/07/21 05:13:14;;;;;;;12.35;9.70;;;;;;;;;;5029213;28;20044;-70
2021/07/21 05:15:44;;;;;;;17.02;12.02;;;;;;;;;;5023957;28;20029;-70
2021/07/21 05:18:11;;;;;;;21.27;13.17;;;;;;;;;;5029517;28;20087;-70
2021/07/21 05:20:37;;;;;;;17.73;11.95;;;;;;;;;;5029428;28;20021;-70
2021/07/21 05:23:05;;;;;;;18.13;10.18;;;;;;;;;;5024502;28;20040;-70
2021/07/21 05:25:31;;;;;;;18.85;11.82;;;;;;;;;;5032473;28;20037;-71
2021/07/21 05:27:57;;;;;;;13.55;11.38;;;;;;;;;;5034172;28;20025;-70
2021/07/21 05:30:23;;;;;;;14.95;11.68;;;;;;;;;;5029130;28;20515;-70
2021/07/21 05:32:49;;;;;;;15.02;11.95;;;;;;;;;;5028196;28;20029;-70
2021/07/21 05:35:15;;;;;;;25.95;12.25;;;;;;;;;;5027944;28;20036;-70
2021/07/21 05:37:42;;;;;;;19.55;12.43;;;;;;;;;;5028505;28;20483;-70
2021/07/21 05:40:08;;;;;;;16.80;10.25;;;;;;;;;;5026259;28;20029;-70
2021/07/21 05:42:34;;;;;;;17.33;10.25;;;;;;;;;;5017076;28;20079;-71
2021/07/21 05:45:01;;;;;;;10.95;9.15;;;;;;;;;;5026491;28;20033;-70
2021/07/21 05:47:27;;;;;;;11.80;9.85;;;;;;;;;;5030375;28;20037;-71
2021/07/21 05:49:53;;;;;;;11.30;8.85;;;;;;;;;;5025485;28;20033;-71
2021/07/21 05:52:19;;;;;;;8.50;7.47;;;;;;;;;;5027880;28;20033;-71
2021/07/21 05:54:45;;;;;;;7.78;6.93;;;;;;;;;;5025507;28;20032;-70
2021/07/21 05:57:11;;;;;;;7.15;6.45;;;;;;;;;;5026398;28;20929;-70
2021/07/21 05:59:38;;;;;;;9.07;6.63;;;;;;;;;;5025460;28;20057;-71
2021/07/21 06:02:04;;;;;;;9.80;6.90;;;;;;;;;;5027732;28;20476;-71
2021/07/21 06:04:30;;;;;;;12.00;6.70;;;;;;;;;;5023059;28;20128;-70
2021/07/21 06:06:56;;;;;;;10.15;7.47;;;;;;;;;;5027152;28;20025;-70
2021/07/21 06:09:23;;;;;;;9.55;7.85;;;;;;;;;;5030922;28;20041;-70
2021/07/21 06:11:50;;;;;;;9.18;7.10;;;;;;;;;;5021481;28;20064;-70
2021/07/21 06:14:16;;;;;;;6.40;5.80;;;;;;;;;;5028998;28;20622;-70
2021/07/21 06:16:42;;;;;;;7.35;6.65;;;;;;;;;;5024483;28;20363;-70
2021/07/21 06:19:08;;;;;;;8.75;6.13;;;;;;;;;;5023920;28;20103;-69
2021/07/21 06:21:35;;;;;;;8.85;6.80;;;;;;;;;;5027650;28;20495;-71
2021/07/21 06:24:01;;;;;;;6.32;5.72;;;;;;;;;;5029072;28;20047;-70
2021/07/21 06:26:28;;;;;;;8.98;6.60;;;;;;;;;;5019040;28;20022;-71
2021/07/21 06:28:54;;;;;;;8.35;6.38;;;;;;;;;;5027683;28;20086;-70
2021/07/21 06:31:20;;;;;;;7.10;6.03;;;;;;;;;;5024242;28;20037;-70
2021/07/21 06:33:46;;;;;;;8.00;6.18;;;;;;;;;;5027867;28;20033;-70
2021/07/21 06:36:14;;;;;;;8.75;6.60;;;;;;;;;;5016471;28;20025;-71
2021/07/21 06:38:40;;;;;;;9.50;6.25;;;;;;;;;;5022009;28;20084;-70
2021/07/21 06:41:06;;;;;;;7.22;6.53;;;;;;;;;;5025125;28;20076;-71
2021/07/21 06:43:32;;;;;;;9.45;6.45;;;;;;;;;;5016074;28;20033;-72
2021/07/21 06:45:58;;;;;;;7.53;6.57;;;;;;;;;;5015960;28;20074;-71
2021/07/21 06:48:25;;;;;;;8.18;6.20;;;;;;;;;;5019518;28;20064;-72
2021/07/21 06:50:51;;;;;;;8.32;6.97;;;;;;;;;;5024822;28;20032;-73
2021/07/21 06:53:17;;;;;;;7.15;6.00;;;;;;;;;;5022725;28;20488;-72
2021/07/21 06:55:43;;;;;;;8.30;6.70;;;;;;;;;;5015468;28;20728;-71
2021/07/21 06:58:10;;;;;;;10.00;6.60;;;;;;;;;;5017144;28;20060;-73
2021/07/21 07:00:36;;;;;;;8.05;6.45;;;;;;;;;;5015239;28;20021;-72
2021/07/21 07:03:02;;;;;;;8.52;6.63;;;;;;;;;;5017387;28;20033;-73
2021/07/21 07:05:28;;;;;;;7.85;6.75;;;;;;;;;;5015095;28;20091;-72
2021/07/21 07:07:54;;;;;;;7.60;6.82;;;;;;;;;;5020165;28;20021;-71
2021/07/21 07:10:20;;;;;;;9.40;7.15;;;;;;;;;;5018571;28;20033;-70
2021/07/21 07:12:50;;;;;;;7.90;6.50;;;;;;;;;;5021369;28;20025;-70
2021/07/21 07:15:16;;;;;;;8.10;6.90;;;;;;;;;;5021282;28;20095;-70
2021/07/21 07:17:43;;;;;;;8.30;6.85;;;;;;;;;;5032654;28;20049;-70
2021/07/21 07:20:10;;;;;;;7.53;5.97;;;;;;;;;;5039523;28;20108;-70
2021/07/21 07:22:36;;;;;;;9.25;7.35;;;;;;;;;;5041045;28;20023;-70
2021/07/21 07:25:02;;;;;;;7.43;6.32;;;;;;;;;;5040673;28;20112;-70
2021/07/21 07:27:30;;;;;;;9.10;6.57;;;;;;;;;;5041305;28;20021;-70
2021/07/21 07:29:56;;;;;;;7.50;6.65;;;;;;;;;;5042299;28;20389;-70
2021/07/21 07:32:23;;;;;;;8.30;6.65;;;;;;;;;;5045720;28;20112;-70
2021/07/21 07:34:49;;;;;;;7.35;6.30;;;;;;;;;;5045471;28;20557;-72
2021/07/21 07:37:15;;;;;;;9.20;6.95;;;;;;;;;;5045442;28;20040;-73
2021/07/21 07:39:41;;;;;;;8.40;6.55;;;;;;;;;;5043588;28;20167;-70
2021/07/21 07:42:08;;;;;;;7.75;6.85;;;;;;;;;;5045008;28;20385;-70
2021/07/21 07:44:34;;;;;;;6.95;6.35;;;;;;;;;;5045114;28;20064;-70
2021/07/21 07:47:01;;;;;;;8.57;6.88;;;;;;;;;;5043385;28;20075;-70
2021/07/21 07:49:27;;;;;;;9.13;6.55;;;;;;;;;;5038972;28;20025;-72
2021/07/21 07:51:53;;;;;;;6.90;5.88;;;;;;;;;;5025865;28;20177;-71
2021/07/21 07:54:21;;;;;;;7.78;6.80;;;;;;;;;;5024809;28;20063;-72
2021/07/21 07:56:47;;;;;;;8.07;5.60;;;;;;;;;;5033729;28;20075;-71
2021/07/21 07:59:13;;;;;;;7.53;6.32;;;;;;;;;;5041812;28;20021;-73
2021/07/21 08:01:39;;;;;;;14.05;6.72;;;;;;;;;;5035954;28;20033;-72
2021/07/21 08:04:06;;;;;;;11.23;6.63;;;;;;;;;;5044120;28;20032;-72
2021/07/21 08:06:33;;;;;;;11.00;7.55;;;;;;;;;;5044665;28;20108;-73
2021/07/21 08:08:59;;;;;;;7.15;6.45;;;;;;;;;;5043615;28;20188;-72
2021/07/21 08:11:26;;;;;;;9.20;6.95;;;;;;;;;;5042490;28;20025;-72
2021/07/21 08:13:52;;;;;;;8.35;6.95;;;;;;;;;;5043993;28;20070;-73
2021/07/21 08:16:18;;;;;;;7.78;6.53;;;;;;;;;;5044325;28;20021;-72
2021/07/21 08:18:45;;;;;;;8.43;6.95;;;;;;;;;;5044185;28;20138;-72
2021/07/21 08:21:11;;;;;;;8.30;6.32;;;;;;;;;;5043674;28;20029;-72
2021/07/21 08:23:38;;;;;;;7.18;6.00;;;;;;;;;;5041800;28;20512;-72
2021/07/21 08:26:04;;;;;;;6.60;5.80;;;;;;;;;;5043958;28;20260;-72
2021/07/21 08:28:33;;;;;;;6.60;5.78;;;;;;;;;;5043820;28;20103;-72
2021/07/21 08:30:59;;;;;;;15.75;9.93;;;;;;;;;;5044040;28;20173;-72
2021/07/21 08:33:25;;;;;;;11.25;8.25;;;;;;;;;;5043774;28;20024;-72
2021/07/21 08:35:51;;;;;;;6.78;6.07;;;;;;;;;;5042010;28;20017;-72
2021/07/21 08:38:18;;;;;;;13.50;8.88;;;;;;;;;;5043525;28;20499;-73
2021/07/21 08:40:44;;;;;;;8.25;6.63;;;;;;;;;;5042703;28;20040;-72
2021/07/21 08:43:11;;;;;;;6.78;6.07;;;;;;;;;;5044165;28;20414;-72
2021/07/21 08:45:37;;;;;;;7.35;6.10;;;;;;;;;;5043367;28;20048;-72
2021/07/21 08:48:04;;;;;;;8.15;5.80;;;;;;;;;;5041923;28;20419;-72
2021/07/21 08:50:30;;;;;;;8.43;5.85;;;;;;;;;;5042995;28;20079;-72
2021/07/21 08:52:58;;;;;;;9.23;7.13;;;;;;;;;;5043721;28;20025;-72
2021/07/21 08:55:24;;;;;;;23.67;11.93;;;;;;;;;;5042150;28;20262;-73
2021/07/21 08:57:51;;;;;;;8.02;6.38;;;;;;;;;;5025159;28;20029;-75
2021/07/21 09:00:18;;;;;;;7.93;6.10;;;;;;;;;;5035076;28;20025;-74
2021/07/21 09:02:45;;;;;;;10.68;6.70;;;;;;;;;;5031609;28;20032;-73
2021/07/21 09:05:12;;;;;;;9.82;7.78;;;;;;;;;;5048492;28;20036;-76
2021/07/21 09:07:40;;;;;;;13.50;8.50;;;;;;;;;;5028503;28;20025;-73
2021/07/21 09:10:06;;;;;;;16.08;10.15;;;;;;;;;;5034189;28;20033;-74
2021/07/21 09:12:33;;;;;;;9.68;7.53;;;;;;;;;;5040953;28;20029;-75
2021/07/21 09:14:59;;;;;;;10.40;6.45;;;;;;;;;;5043556;28;20070;-75
2021/07/21 09:17:27;;;;;;;11.13;7.15;;;;;;;;;;5039277;28;20132;-74
2021/07/21 09:19:53;;;;;;;12.07;7.53;;;;;;;;;;5041161;28;20028;-74
2021/07/21 09:22:23;;;;;;;9.20;6.80;;;;;;;;;;5026442;28;20804;-74
2021/07/21 09:25:08;;;;;;;9.47;6.83;;;;;;;;;;5028854;28;20037;-73
2021/07/21 09:27:34;;;;;;;13.90;8.88;;;;;;;;;;5025303;28;20250;-74
2021/07/21 09:30:00;;;;;;;11.98;8.43;;;;;;;;;;5029176;28;20032;-73
2021/07/21 09:32:27;;;;;;;6.78;5.68;;;;;;;;;;5028808;28;20107;-74
2021/07/21 09:34:53;;;;;;;8.15;6.53;;;;;;;;;;5029086;28;20035;-73
2021/07/21 09:37:20;;;;;;;7.47;6.07;;;;;;;;;;5029811;28;20260;-73
2021/07/21 09:39:50;;;;;;;10.75;6.80;;;;;;;;;;5027891;28;20397;-74
2021/07/21 09:42:16;;;;;;;12.23;8.45;;;;;;;;;;5030276;28;20099;-73
2021/07/21 09:44:44;;;;;;;8.80;7.25;;;;;;;;;;5026958;28;20045;-73
2021/07/21 09:47:21;;;;;;;7.32;5.97;;;;;;;;;;5029195;28;20037;-73
2021/07/21 09:49:48;;;;;;;8.65;6.85;;;;;;;;;;5028697;28;20025;-73
2021/07/21 09:52:22;;;;;;;14.85;7.60;;;;;;;;;;5027519;28;20030;-73
2021/07/21 09:55:04;;;;;;;9.23;6.60;;;;;;;;;;5027330;28;20914;-72
2021/07/21 09:57:30;;;;;;;10.73;7.40;;;;;;;;;;5026063;28;20057;-72
2021/07/21 09:59:57;;;;;;;10.30;7.13;;;;;;;;;;5030542;28;20677;-73
2021/07/21 10:02:25;;;;;;;6.32;5.72;;;;;;;;;;5022190;28;20683;-73
2021/07/21 10:04:52;;;;;;;8.85;5.97;;;;;;;;;;5023332;28;20049;-73
2021/07/21 10:10:10;;;;;;;;;;;;;;;;;;5025185;28;20240;-74
2021/07/21 10:12:36;;;;;;;10.80;7.22;;;;;;;;;;5029282;28;19916;-73
2021/07/21 10:15:03;;;;;;;13.63;7.47;;;;;;;;;;5033351;28;20033;-73
2021/07/21 10:17:29;;;;;;;9.05;6.30;;;;;;;;;;5026346;28;20111;-73
2021/07/21 10:19:56;;;;;;;7.65;5.90;;;;;;;;;;5027110;28;20466;-73
2021/07/21 10:22:22;;;;;;;7.07;5.80;;;;;;;;;;5041564;28;20079;-73
2021/07/21 10:24:48;;;;;;;7.55;5.72;;;;;;;;;;5036849;28;20033;-73
2021/07/21 10:27:17;;;;;;;8.23;5.93;;;;;;;;;;5024616;28;20021;-73
2021/07/21 10:29:44;;;;;;;6.65;5.68;;;;;;;;;;5028542;28;20025;-73
2021/07/21 10:32:11;;;;;;;7.35;5.38;;;;;;;;;;5028806;28;20030;-71
2021/07/21 10:34:37;;;;;;;8.40;5.60;;;;;;;;;;5021177;28;20416;-73
2021/07/21 10:37:04;;;;;;;8.35;6.00;;;;;;;;;;5021948;28;20543;-72
2021/07/21 10:39:31;;;;;;;6.38;5.50;;;;;;;;;;5028822;28;20039;-74
2021/07/21 10:42:01;;;;;;;7.38;5.93;;;;;;;;;;5025374;28;20025;-73
2021/07/21 10:44:27;;;;;;;7.95;5.88;;;;;;;;;;5032621;28;20578;-73
2021/07/21 10:46:54;;;;;;;8.38;6.32;;;;;;;;;;5026585;28;20044;-73
2021/07/21 10:55:02;;;;;;;8.65;5.35;;;;;;;;;;5022042;28;20060;-73
2021/07/21 11:00:20;;;;;;;5.18;4.68;;;;;;;;;;5019703;28;20041;-73
2021/07/21 11:02:47;;;;;;;6.68;5.28;;;;;;;;;;5024252;28;20477;-73
2021/07/21 11:05:29;;;;;;;7.63;5.25;;;;;;;;;;5039785;28;20499;-73
2021/07/21 11:07:56;;;;;;;8.88;6.03;;;;;;;;;;5037002;28;20119;-73
2021/07/21 11:10:32;;;;;;;7.60;4.95;;;;;;;;;;5038478;28;20077;-73
2021/07/21 11:12:59;;;;;;;11.85;6.55;;;;;;;;;;5027188;28;20040;-73
2021/07/21 11:15:45;;;;;;;6.10;5.10;;;;;;;;;;5029743;28;20087;-73
2021/07/21 11:18:24;;;;;;;9.63;5.18;;;;;;;;;;5029532;28;20296;-73
2021/07/21 11:20:56;;;;;;;9.00;4.82;;;;;;;;;;5031114;28;20033;-74
2021/07/21 11:23:41;;;;;;;7.68;4.47;;;;;;;;;;5036147;28;20095;-73
2021/07/21 11:26:25;;;;;;;6.55;4.82;;;;;;;;;;5036348;28;20080;-73
2021/07/21 11:28:52;;;;;;;7.20;5.00;;;;;;;;;;5025462;28;20115;-73
2021/07/21 11:31:18;;;;;;;5.25;4.55;;;;;;;;;;5032241;28;20432;-72
2021/07/21 11:33:55;;;;;;;6.85;4.90;;;;;;;;;;5029417;28;20032;-73
2021/07/21 11:36:40;;;;;;;8.63;5.13;;;;;;;;;;5032120;28;20037;-73
2021/07/21 11:39:10;;;;;;;5.47;5.03;;;;;;;;;;5034579;28;20086;-73
2021/07/21 11:41:48;;;;;;;21.95;7.05;;;;;;;;;;5023895;28;20622;-73
2021/07/21 11:44:22;;;;;;;6.78;5.22;;;;;;;;;;5025959;28;20048;-73
2021/07/21 11:46:49;;;;;;;7.38;5.10;;;;;;;;;;5033750;28;20028;-73
2021/07/21 11:49:19;;;;;;;6.25;5.28;;;;;;;;;;5025256;28;20028;-73
2021/07/21 11:51:48;;;;;;;6.03;5.20;;;;;;;;;;5040816;28;20029;-73
2021/07/21 11:54:19;;;;;;;5.75;5.13;;;;;;;;;;5002859;28;20037;-73
2021/07/21 11:56:47;;;;;;;10.93;5.13;;;;;;;;;;5009529;28;20235;-73
2021/07/21 11:59:13;;;;;;;5.70;4.80;;;;;;;;;;5013241;28;20033;-73
2021/07/21 12:01:39;;;;;;;7.13;5.50;;;;;;;;;;5036609;28;20033;-73
2021/07/21 12:04:05;;;;;;;5.63;5.07;;;;;;;;;;5007528;28;20034;-73
2021/07/21 12:06:31;;;;;;;6.47;5.00;;;;;;;;;;5007830;28;20030;-73
2021/07/21 12:08:58;;;;;;;9.43;5.22;;;;;;;;;;5004565;28;21415;-73
2021/07/21 12:11:25;;;;;;;5.45;4.95;;;;;;;;;;5007247;28;20030;-73
2021/07/21 12:14:02;;;;;;;5.50;5.00;;;;;;;;;;5001443;28;20025;-73
2021/07/21 12:16:36;;;;;;;6.30;5.00;;;;;;;;;;5006652;28;20022;-73
2021/07/21 12:19:03;;;;;;;6.28;5.32;;;;;;;;;;5007536;28;20048;-73
2021/07/21 12:21:31;;;;;;;6.45;5.68;;;;;;;;;;5007689;28;20028;-73
2021/07/21 12:24:01;;;;;;;5.55;5.05;;;;;;;;;;5007189;28;20032;-73
2021/07/21 12:26:41;;;;;;;6.32;5.60;;;;;;;;;;5005150;28;20129;-73
2021/07/21 12:29:07;;;;;;;7.18;5.30;;;;;;;;;;5013476;28;20080;-74
2021/07/21 12:31:33;;;;;;;6.57;5.18;;;;;;;;;;5003996;28;20181;-73
2021/07/21 12:34:16;;;;;;;7.78;6.40;;;;;;;;;;5014474;28;20053;-73
2021/07/21 12:36:46;;;;;;;8.35;5.78;;;;;;;;;;5013375;28;20126;-74
2021/07/21 12:39:14;;;;;;;6.95;5.47;;;;;;;;;;5005527;28;20017;-73
2021/07/21 12:41:41;;;;;;;9.43;6.38;;;;;;;;;;5009633;28;20064;-73
2021/07/21 12:44:14;;;;;;;7.35;5.30;;;;;;;;;;5019905;28;20120;-73
2021/07/21 12:46:40;;;;;;;5.88;5.30;;;;;;;;;;5019230;28;20029;-73
2021/07/21 12:49:07;;;;;;;6.55;5.68;;;;;;;;;;5037270;28;20028;-74
2021/07/21 12:51:34;;;;;;;5.68;5.18;;;;;;;;;;5024856;28;20048;-73
2021/07/21 12:54:00;;;;;;;9.25;5.43;;;;;;;;;;5035083;28;20513;-73
2021/07/21 12:56:26;;;;;;;6.32;5.22;;;;;;;;;;5032249;28;20592;-73
2021/07/21 12:59:06;;;;;;;7.50;5.88;;;;;;;;;;5033969;28;20489;-74
2021/07/21 13:01:32;;;;;;;5.78;5.25;;;;;;;;;;5024887;28;20038;-73
2021/07/21 13:03:58;;;;;;;6.05;5.30;;;;;;;;;;5023328;28;20029;-73
2021/07/21 13:06:24;;;;;;;6.60;5.10;;;;;;;;;;5033300;28;20086;-74
2021/07/21 13:08:51;;;;;;;6.18;5.10;;;;;;;;;;5030471;28;20020;-73
2021/07/21 13:11:17;;;;;;;4.90;4.35;;;;;;;;;;5029075;28;20025;-72
2021/07/21 13:13:53;;;;;;;5.43;4.35;;;;;;;;;;5032175;28;20040;-73
2021/07/21 13:16:23;;;;;;;6.25;5.28;;;;;;;;;;5032141;28;20022;-72
2021/07/21 13:18:50;;;;;;;6.15;4.65;;;;;;;;;;5018772;28;20615;-73
2021/07/21 13:21:24;;;;;;;6.90;5.15;;;;;;;;;;5030930;28;20037;-73
2021/07/21 13:24:00;;;;;;;7.35;5.80;;;;;;;;;;5031102;28;20062;-73
2021/07/21 13:26:27;;;;;;;5.65;5.13;;;;;;;;;;5023674;28;20056;-72
2021/07/21 13:28:54;;;;;;;6.00;5.00;;;;;;;;;;5019444;28;20033;-73
2021/07/21 13:31:22;;;;;;;6.05;5.38;;;;;;;;;;5034385;28;20051;-73
2021/07/21 13:33:50;;;;;;;5.53;5.03;;;;;;;;;;5028815;28;20107;-74
2021/07/21 13:36:18;;;;;;;6.15;5.13;;;;;;;;;;5025213;28;20034;-73
2021/07/21 13:38:56;;;;;;;8.25;5.35;;;;;;;;;;5032263;28;20029;-74
2021/07/21 13:41:42;;;;;;;9.63;5.65;;;;;;;;;;5038368;28;20021;-73
2021/07/21 13:44:12;;;;;;;5.20;4.45;;;;;;;;;;5027677;28;20689;-73
2021/07/21 13:46:46;;;;;;;7.32;5.75;;;;;;;;;;5041229;28;20417;-73
2021/07/21 13:49:13;;;;;;;6.03;5.43;;;;;;;;;;5042688;28;20104;-74
2021/07/21 13:51:39;;;;;;;5.82;4.60;;;;;;;;;;5042852;28;20017;-73
2021/07/21 13:54:24;;;;;;;7.82;5.00;;;;;;;;;;5042350;28;20032;-74
2021/07/21 13:56:57;;;;;;;7.28;5.70;;;;;;;;;;5024994;28;20025;-73
2021/07/21 13:59:23;;;;;;;5.65;5.15;;;;;;;;;;5026941;28;20578;-72
2021/07/21 14:01:50;;;;;;;9.02;5.65;;;;;;;;;;5024699;28;20033;-72
2021/07/21 14:04:17;;;;;;;7.80;5.75;;;;;;;;;;5030996;28;20037;-72
2021/07/21 14:06:44;;;;;;;6.43;5.30;;;;;;;;;;5036820;28;20134;-72
2021/07/21 14:09:10;;;;;;;6.25;5.25;;;;;;;;;;5030542;28;20485;-73
2021/07/21 14:11:37;;;;;;;5.35;4.85;;;;;;;;;;5031010;28;20488;-73
2021/07/21 14:14:04;;;;;;;6.07;4.88;;;;;;;;;;5031004;28;20034;-72
2021/07/21 14:16:30;;;;;;;5.38;4.57;;;;;;;;;;5024320;28;20087;-73
2021/07/21 14:18:57;;;;;;;7.15;4.95;;;;;;;;;;5013697;28;20660;-73
2021/07/21 14:21:23;;;;;;;12.35;5.10;;;;;;;;;;5020432;28;20522;-73
2021/07/21 14:23:49;;;;;;;10.45;5.10;;;;;;;;;;5018037;28;20061;-72
2021/07/21 14:26:16;;;;;;;9.23;5.38;;;;;;;;;;5010894;28;20024;-71
2021/07/21 14:28:42;;;;;;;7.75;5.25;;;;;;;;;;5008130;28;20500;-71
2021/07/21 14:31:09;;;;;;;6.28;4.95;;;;;;;;;;5011241;28;20054;-74
2021/07/21 14:33:36;;;;;;;5.90;5.22;;;;;;;;;;5009102;28;20036;-71
2021/07/21 14:36:02;;;;;;;7.32;5.65;;;;;;;;;;5015264;28;20029;-73
2021/07/21 14:38:28;;;;;;;8.30;5.78;;;;;;;;;;5006698;28;20033;-75
2021/07/21 14:40:54;;;;;;;9.77;5.50;;;;;;;;;;5007644;28;20029;-77
2021/07/21 14:43:20;;;;;;;7.03;5.30;;;;;;;;;;5013443;28;20025;-73
2021/07/21 14:45:47;;;;;;;8.40;5.40;;;;;;;;;;5009352;28;20063;-74
2021/07/21 14:48:13;;;;;;;7.53;5.43;;;;;;;;;;5013701;28;20121;-74
2021/07/21 14:50:39;;;;;;;7.70;4.97;;;;;;;;;;5010308;28;20901;-76
2021/07/21 14:53:05;;;;;;;9.38;4.72;;;;;;;;;;5006033;28;20021;-73
2021/07/21 14:55:31;;;;;;;6.18;5.00;;;;;;;;;;5013092;28;20025;-73
2021/07/21 14:57:58;;;;;;;7.57;5.50;;;;;;;;;;5010729;28;20030;-73
2021/07/21 15:00:24;;;;;;;8.02;5.13;;;;;;;;;;5013944;28;20060;-72